עמוד ראשי
METAR-TAF:

METAR-TAF

שדות תעופה :

Ciudad Obregón, מקסיקו

קו רוחב: 27-24N, קו אורך: 109-50W, גובה: 62מטר

תצפית מזג אוויר נוכחית

הדו"ח נערך לפני 6 שעות ו 51דקות, בשעה 01:41 UTC
רוח 7קשר מכיוון דרום-מערב
טמפרטורת 32 צלסיוס
לחות 38%
לחץ 1004 hPa
ראות: 16.1קילומטר
שמיים נקיים

METAR: MMCN 160141Z 23007KT 10SM SKC 32/16 A2966 RMK HZY

זמן: 01:32 (08:32 UTC)

תחזית

הדו"ח נערך לפני 3 שעות ו 30דקות, בשעה 05:02 UTC
תחזית בתוקף מ 16 ב 06 UTC עד 17 ב 06 UTC
רוח 5קשר מכיוון מזרח/דרום-מזרח
ראות: 10קילומטר
שמיים נקיים
זמנית מ -
16 ב 12 UTC עד 16 ב 16 UTC
ראות: 4.8קילומטר
עננים בינוניים בגובה 1500רגל
אד
מ 16 ב 2000UTC
רוח 15קשר מכיוון דרום/דרום-מערב
ראות: 10קילומטר
שמיים נקיים
יעשה מ
17 ב 01 UTC עד 17 ב 02 UTC
רוח 5קשר מכיוון דרום

TAF: MMCN 160502Z 1606/1706 11005KT P6SM SKC TEMPO 1612/1616 3SM BR BKN015 FM162000 21015KT P6SM SKC BECMG 1701/1702 17005KT

תצפיות ותחזיות מזג אוויר לגבי יותר מ- 4,000 שדות תעופה ברחבי העולם. דוחות METAR ו- TAF.

התחנות הזמינות מסומנות בנקודות צהובות ואדומות על גבי המפה.

העבר את העכבר לנקודה הצבעונית על מנת לראות את שם התחנה.

לאחר מכן, לחץ כדי לראות את תוכן ואת תחזיות מזג האוויר.

כדי לשנות את המפה: לחץ על הכפתורים הירוקים עם הפלוס השחור כדי להתקרב; על הכפתור הירוק עם המקף כדי להתרחק; או בחיצים הירוקים למפות סמוכות.


METAR-TAF: